Pagrindinis puslapis
METAR-TAF:

METAR-TAF

Oro uostai :

Riberalta, Bolivija

platuma: 11-00S, ilguma: 066-07W, Aukštis: 141 m

Dabartinis oras

Ataskaita buvo paskelbta 53 minutes, ne 22:00 UTC
Vėjas 8 kt iš Vakarų/Šiaurės Vakarų
Temperatūra 24°C
Drėgmė 94%
Slėgis 1010 hPa
Matomumas: 2000 m
Išsisklaidę debesys ne aukštis 1500 ft
Mažai debesys ne aukštis 2000 ft, Liūtiniai kamuoliniai debesys.
Su prošvaistėmis ne aukštis 20000 ft
lietus

METAR: SLRI 282200Z 29008KT 2000 SHRA SCT015 FEW020CB BKN200 24/23 Q1010

Laikas: 18:53 (22:53 UTC)


TAF: trūkstamas

Orai ataskaitas ir orų prognozės (METAR, TAF).

turimą stotys yra geltonos ir raudonos taškus žemėlapyje.

Perkelti pele per norėdami pamatyti stoties vardą.

Tada spustelėkite, norėdami matyti oro stebėjimo ir prognozės.

Norėdami pakeisti žemėlapį: spustelėkite ant žalios mygtukų su juodo kryžiaus žemyn,; žalią mygtuką su brūkšneliu, jei norite nutolinti; arba žalių rodyklių gretimoms žemėlapius.


METAR-TAF: